Hovedside
METAR-TAF:

METAR-TAF

Lufthavner :

RAF Coningsby

Coningsby, England

breddegrad: 53-05N, lengdegrad: 000-10W, høyde over havet: 7 m

Gjeldene værobservasjon

Denne rapporten ble laget for 32 minutter siden, klokken 14:20 UTC
Vind 12 kt fra Sør-sørvest
Temperatur 26°C
Luftfuktighet 42%
Trykk 1019 hPa
Sikt 10 km eller mer
Få skyer i en høyde av 4500 ft
Spredte skyer i en høyde av 25000 ft

METAR: EGXC 181420Z 20012KT 9999 FEW045 SCT250 26/12 Q1019 NOSIG RMK BLU BLU

Tid: 15:52 (14:52 UTC)

Varsel

Denne rapporten ble laget for 1 time og 18 minutter siden, klokken 13:34 UTC
Varsel gyldig fra 18. klokken 15 UTC til 19. klokken 09 UTC
Vind 10 kt fra Sør-sørvest
Sikt 10 km eller mer
Få skyer i en høyde av 3000 ft

TAF: EGXC 181334Z 1815/1909 21010KT 9999 FEW030

Værobservasjoner og værvarsel for over 4000 flyplasser (METAR- og TAF-rapporter).

Tilgjengelige stasjoner er representert av de røde og gule prikkene på kartet.

Hold musepekeren over prikken for å se navnet på stasjonen.

Klikk så for å se værobservasjoner og -varsler.

For å forandre kartet kan du klikke på den grønne knappen med svart kryss for å zoome inn, på den grønne knappen med strek for å zoome ut, eller på de grønne pilene for å se tilstøtende kart.


METAR-TAF: